DIRECCIÓN GENERAL DE AERONÁUTICA CIVIL
DIRECCIÓN METEOROLÓGICA DE CHILE
INFORMACIÓN METAR Y TAF

FIR PUERTO MONTT

Estación: SCQP
METAR SCQP 221700Z 03013KT 9999 BKN025 13/09 Q1013=

TAF SCQP 221640Z 2218/2318 01009KT 5000 -RA SCT015 OVC025 TX13/2219Z TN08/2309Z TEMPO 2221/2302 3000 RA BKN010 OVC015 BECMG 2306/2308 04003KT 7000 -RA BECMG 2313/2315 9999=

Estación: SCVD
METAR SCVD 221700Z 21004KT 7000 FEW008 BKN022 OVC028 11/10 Q1013=

TAF SCVD 221640Z 2218/2306 36008KT 5000 -RA SCT008 BKN015 OVC060 TX12 /2218Z TN08/2306Z TEMPO 2219/2222 3000 RA BKN007 BECMG 2304/2306 8000 -RA SCT010 BKN020=

Estación: SCJO
METAR SCJO 221700Z 34006KT 310V020 2500 RA BKN020 OVC030 11/11 Q1013=

TAF SCJO 221640Z 2218/2306 36008KT 7000 -RA SCT015 BKN025 OVC060 TX12 /2218Z TN08/2306Z TEMPO 2219/2222 5000 RA OVC015=

Estación: SCTE
METAR SCTE 221700Z 01010KT 9999 BKN012 OVC030 12/09 Q1012 NOSIG=

TAF SCTE 221640Z 2218/2318 02010KT 7000 -RA SCT010 BKN017 OVC060 TX12 /2219Z TN08/2309Z TEMPO 2218/2221 5000 -RA BKN010 BECMG 2306/2308 01003KT 9999 SCT015 BKN030=

Estación: SCPQ
METAR SCPQ 221700Z 03005KT 360V070 3500 RA BR SCT004 BKN013 OVC038 10/09 Q1011=

TAF SCPQ 221640Z 2218/2306 02008KT 4000 RA BR SCT005 OVC015 TX10/ 2219Z TN08/2306Z BECMG 2223/2301 7000 -SHRA SCT012 BKN025=

Estación: SCON
METAR SCON 221700Z 06003KT 5000 -RA OVC015 11/10 Q1011=

TAF SCON 221640Z 2218/2306 06006KT 5000 -RA OVC015 TX11/2218Z TN09/ 2306Z BECMG 2222/2300 8000 -SHRA SCT015 BKN025=

Estación: SCTN
METAR SCTN NIL=

TAF SCTN NIL=

Estación: SCFT
METAR SCFT 221700Z 08013KT 040V100 CAVOK 14/04 Q1012=

TAF SCFT NIL=

Estación: SCAP
METAR SCAP 221700Z 07014G24KT 020V090 CAVOK 17/03 Q1017=

TAF SCAP NIL=

Estación: SCMK
METAR SCMK 221700Z 25005KT 9999 OVC030 10/08 Q1010=

TAF SCMK 221640Z 2218/2306 04008KT 5000 -RA OVC015 TX11/2218Z TN09/ 2306Z BECMG 2222/2300 8000 -SHRA SCT012 BKN025=

Estación: SCAS
METAR SCAS 221700Z /////KT 9999 -RA SCT033 OVC050 09/07 Q1014=

TAF SCAS NIL=

Estación: SCCY
METAR SCCY 221700Z 00000KT 6000 RA FEW003 SCT026 OVC040 05/04 Q1016=

TAF SCCY 221645Z 2218/2306 22005KT 7000 -RA OVC035 TX09/2219Z TN04/ 2212Z PROB40 TEMPO 2218/2221 5000 -RA BKN025=

Estación: SCBA
METAR SCBA 221700Z 13012KT 9999 -RA BKN035 OVC050 05/03 Q1016=

TAF SCBA 221640Z 2218/2318 10013KT 9999 SCT030 OVC050 TX08/2218Z TN02 /2309Z TEMPO 2219/2222 7000 -RA BKN030 BECMG 2302/2304 13005KT SCT040 BKN080 BECMG 2312/2314 BKN035=

Estación: SCCC
METAR SCCC 221700Z 08007KT 9999 FEW005 BKN033 OVC070 06/04 Q1018=

TAF SCCC CECF 7687=

Estación: SCHR
METAR SCHR 221700Z 29004KT 9999 SCT035 BKN100 09/04 Q1014=

TAF SCHR 221050Z 2212/2300 03007KT 9999 FEW040 TN00/2212Z TX06/2218Z BECMG 2214/2216 13005KT 9000 BKN035 PROB40 TEMPO 2221/2300 3000 RADZ SCT007=


Volver